sensor_id;sensor_type;location;lat;lon;timestamp;P1;durP1;ratioP1;P2;durP2;ratioP2
72801;SDS011;61891;55.818;37.084;2022-09-21T00:01:26;8.25;;;4.80;;
72801;SDS011;61891;55.818;37.084;2022-09-21T00:03:55;7.78;;;4.63;;
72801;SDS011;61891;55.818;37.084;2022-09-21T00:06:22;7.78;;;4.93;;
72801;SDS011;61891;55.818;37.084;2022-09-21T00:08:50;8.43;;;5.32;;
72801;SDS011;61891;55.818;37.084;2022-09-21T00:11:17;8.48;;;5.70;;
72801;SDS011;61891;55.818;37.084;2022-09-21T00:13:44;9.93;;;5.38;;
72801;SDS011;61891;55.818;37.084;2022-09-21T00:16:11;10.20;;;6.47;;
72801;SDS011;61891;55.818;37.084;2022-09-21T00:18:38;12.10;;;6.07;;
72801;SDS011;61891;55.818;37.084;2022-09-21T00:21:07;13.55;;;7.07;;
72801;SDS011;61891;55.818;37.084;2022-09-21T00:23:37;10.05;;;5.97;;
72801;SDS011;61891;55.818;37.084;2022-09-21T00:26:04;12.20;;;7.05;;
72801;SDS011;61891;55.818;37.084;2022-09-21T00:28:30;11.18;;;6.88;;
72801;SDS011;61891;55.818;37.084;2022-09-21T00:30:59;11.20;;;6.57;;
72801;SDS011;61891;55.818;37.084;2022-09-21T00:33:27;11.27;;;6.60;;
72801;SDS011;61891;55.818;37.084;2022-09-21T00:35:52;10.35;;;6.00;;
72801;SDS011;61891;55.818;37.084;2022-09-21T00:38:18;7.72;;;5.63;;
72801;SDS011;61891;55.818;37.084;2022-09-21T00:40:43;9.23;;;4.90;;
72801;SDS011;61891;55.818;37.084;2022-09-21T00:43:10;10.60;;;5.22;;
72801;SDS011;61891;55.818;37.084;2022-09-21T00:45:40;7.53;;;5.00;;
72801;SDS011;61891;55.818;37.084;2022-09-21T00:48:07;8.82;;;4.78;;
72801;SDS011;61891;55.818;37.084;2022-09-21T00:50:34;6.60;;;4.38;;
72801;SDS011;61891;55.818;37.084;2022-09-21T00:53:02;7.03;;;4.55;;
72801;SDS011;61891;55.818;37.084;2022-09-21T00:58:04;9.35;;;4.97;;
72801;SDS011;61891;55.818;37.084;2022-09-21T01:00:35;8.18;;;4.40;;
72801;SDS011;61891;55.818;37.084;2022-09-21T01:03:01;6.20;;;4.32;;
72801;SDS011;61891;55.818;37.084;2022-09-21T01:05:28;6.80;;;3.65;;
72801;SDS011;61891;55.818;37.084;2022-09-21T01:07:54;8.90;;;4.50;;
72801;SDS011;61891;55.818;37.084;2022-09-21T01:10:24;8.10;;;5.07;;
72801;SDS011;61891;55.818;37.084;2022-09-21T01:18:37;12.57;;;8.98;;
72801;SDS011;61891;55.818;37.084;2022-09-21T01:21:19;14.75;;;9.43;;
72801;SDS011;61891;55.818;37.084;2022-09-21T01:26:39;12.40;;;7.80;;
72801;SDS011;61891;55.818;37.084;2022-09-21T01:32:11;9.68;;;7.00;;
72801;SDS011;61891;55.818;37.084;2022-09-21T01:37:18;10.20;;;6.40;;
72801;SDS011;61891;55.818;37.084;2022-09-21T01:39:52;9.88;;;6.55;;
72801;SDS011;61891;55.818;37.084;2022-09-21T01:42:20;10.82;;;6.45;;
72801;SDS011;61891;55.818;37.084;2022-09-21T01:44:50;11.80;;;5.55;;
72801;SDS011;61891;55.818;37.084;2022-09-21T01:47:16;11.77;;;7.30;;
72801;SDS011;61891;55.818;37.084;2022-09-21T01:49:45;12.25;;;6.47;;
72801;SDS011;61891;55.818;37.084;2022-09-21T01:55:03;13.82;;;8.13;;
72801;SDS011;61891;55.818;37.084;2022-09-21T02:00:19;14.18;;;7.55;;
72801;SDS011;61891;55.818;37.084;2022-09-21T02:05:25;12.25;;;6.63;;
72801;SDS011;61891;55.818;37.084;2022-09-21T02:07:54;13.70;;;6.85;;
72801;SDS011;61891;55.818;37.084;2022-09-21T02:10:22;13.63;;;7.18;;
72801;SDS011;61891;55.818;37.084;2022-09-21T02:12:54;14.25;;;7.13;;
72801;SDS011;61891;55.818;37.084;2022-09-21T02:15:26;13.68;;;7.13;;
72801;SDS011;61891;55.818;37.084;2022-09-21T02:20:57;11.63;;;6.28;;
72801;SDS011;61891;55.818;37.084;2022-09-21T02:23:33;11.52;;;6.60;;
72801;SDS011;61891;55.818;37.084;2022-09-21T02:26:06;11.52;;;6.47;;
72801;SDS011;61891;55.818;37.084;2022-09-21T02:31:35;11.13;;;6.15;;
72801;SDS011;61891;55.818;37.084;2022-09-21T02:39:18;12.02;;;7.03;;
72801;SDS011;61891;55.818;37.084;2022-09-21T02:44:37;11.82;;;6.93;;
72801;SDS011;61891;55.818;37.084;2022-09-21T02:47:08;11.50;;;6.75;;
72801;SDS011;61891;55.818;37.084;2022-09-21T02:49:44;11.20;;;6.80;;
72801;SDS011;61891;55.818;37.084;2022-09-21T02:52:16;11.13;;;7.07;;
72801;SDS011;61891;55.818;37.084;2022-09-21T02:54:44;11.73;;;6.85;;
72801;SDS011;61891;55.818;37.084;2022-09-21T02:57:13;10.80;;;5.75;;
72801;SDS011;61891;55.818;37.084;2022-09-21T02:59:41;11.15;;;7.47;;
72801;SDS011;61891;55.818;37.084;2022-09-21T03:02:09;10.35;;;6.50;;
72801;SDS011;61891;55.818;37.084;2022-09-21T03:04:37;11.27;;;5.72;;
72801;SDS011;61891;55.818;37.084;2022-09-21T03:07:06;12.18;;;7.03;;
72801;SDS011;61891;55.818;37.084;2022-09-21T03:09:32;10.52;;;6.78;;
72801;SDS011;61891;55.818;37.084;2022-09-21T03:11:58;11.23;;;6.82;;
72801;SDS011;61891;55.818;37.084;2022-09-21T03:14:23;11.88;;;6.90;;
72801;SDS011;61891;55.818;37.084;2022-09-21T03:16:49;14.32;;;6.95;;
72801;SDS011;61891;55.818;37.084;2022-09-21T03:19:15;12.90;;;7.80;;
72801;SDS011;61891;55.818;37.084;2022-09-21T03:21:41;13.63;;;7.65;;
72801;SDS011;61891;55.818;37.084;2022-09-21T03:24:07;10.07;;;6.70;;
72801;SDS011;61891;55.818;37.084;2022-09-21T03:26:33;15.48;;;7.70;;
72801;SDS011;61891;55.818;37.084;2022-09-21T03:28:59;12.10;;;7.50;;
72801;SDS011;61891;55.818;37.084;2022-09-21T03:31:25;11.23;;;7.43;;
72801;SDS011;61891;55.818;37.084;2022-09-21T03:33:51;14.05;;;7.80;;
72801;SDS011;61891;55.818;37.084;2022-09-21T03:36:17;11.30;;;6.95;;
72801;SDS011;61891;55.818;37.084;2022-09-21T03:38:42;10.52;;;6.93;;
72801;SDS011;61891;55.818;37.084;2022-09-21T03:41:08;10.43;;;5.65;;
72801;SDS011;61891;55.818;37.084;2022-09-21T03:43:34;10.80;;;5.55;;
72801;SDS011;61891;55.818;37.084;2022-09-21T03:46:00;9.13;;;5.90;;
72801;SDS011;61891;55.818;37.084;2022-09-21T03:48:25;6.45;;;4.57;;
72801;SDS011;61891;55.818;37.084;2022-09-21T03:50:51;9.32;;;5.90;;
72801;SDS011;61891;55.818;37.084;2022-09-21T03:53:17;12.80;;;7.50;;
72801;SDS011;61891;55.818;37.084;2022-09-21T03:55:42;12.43;;;8.45;;
72801;SDS011;61891;55.818;37.084;2022-09-21T03:58:08;14.90;;;9.57;;
72801;SDS011;61891;55.818;37.084;2022-09-21T04:00:34;13.25;;;9.07;;
72801;SDS011;61891;55.818;37.084;2022-09-21T04:05:26;11.27;;;7.45;;
72801;SDS011;61891;55.818;37.084;2022-09-21T04:07:53;15.23;;;10.10;;
72801;SDS011;61891;55.818;37.084;2022-09-21T04:10:21;12.00;;;7.50;;
72801;SDS011;61891;55.818;37.084;2022-09-21T04:12:51;12.32;;;6.88;;
72801;SDS011;61891;55.818;37.084;2022-09-21T04:15:21;13.60;;;8.35;;
72801;SDS011;61891;55.818;37.084;2022-09-21T04:20:17;10.85;;;7.35;;
72801;SDS011;61891;55.818;37.084;2022-09-21T04:25:10;11.88;;;6.57;;
72801;SDS011;61891;55.818;37.084;2022-09-21T04:27:37;10.95;;;6.35;;
72801;SDS011;61891;55.818;37.084;2022-09-21T04:30:03;14.15;;;6.97;;
72801;SDS011;61891;55.818;37.084;2022-09-21T04:32:30;12.77;;;7.35;;
72801;SDS011;61891;55.818;37.084;2022-09-21T04:34:56;11.45;;;6.68;;
72801;SDS011;61891;55.818;37.084;2022-09-21T04:37:22;10.20;;;6.95;;
72801;SDS011;61891;55.818;37.084;2022-09-21T04:39:48;14.68;;;7.40;;
72801;SDS011;61891;55.818;37.084;2022-09-21T04:42:13;13.98;;;8.30;;
72801;SDS011;61891;55.818;37.084;2022-09-21T04:44:39;13.23;;;7.43;;
72801;SDS011;61891;55.818;37.084;2022-09-21T04:47:05;13.05;;;6.60;;
72801;SDS011;61891;55.818;37.084;2022-09-21T04:49:31;11.85;;;7.35;;
72801;SDS011;61891;55.818;37.084;2022-09-21T04:51:56;15.90;;;9.88;;
72801;SDS011;61891;55.818;37.084;2022-09-21T04:54:22;42.03;;;21.80;;
72801;SDS011;61891;55.818;37.084;2022-09-21T04:56:48;14.85;;;8.43;;
72801;SDS011;61891;55.818;37.084;2022-09-21T04:59:14;11.52;;;6.53;;
72801;SDS011;61891;55.818;37.084;2022-09-21T05:01:39;19.17;;;8.05;;
72801;SDS011;61891;55.818;37.084;2022-09-21T05:04:05;16.77;;;8.60;;
72801;SDS011;61891;55.818;37.084;2022-09-21T05:06:31;15.98;;;8.75;;
72801;SDS011;61891;55.818;37.084;2022-09-21T05:08:58;18.27;;;9.32;;
72801;SDS011;61891;55.818;37.084;2022-09-21T05:11:43;16.58;;;9.70;;
72801;SDS011;61891;55.818;37.084;2022-09-21T05:14:09;16.20;;;9.35;;
72801;SDS011;61891;55.818;37.084;2022-09-21T05:16:36;18.38;;;9.52;;
72801;SDS011;61891;55.818;37.084;2022-09-21T05:19:02;17.10;;;9.65;;
72801;SDS011;61891;55.818;37.084;2022-09-21T05:21:28;19.45;;;10.10;;
72801;SDS011;61891;55.818;37.084;2022-09-21T05:23:56;17.58;;;9.30;;
72801;SDS011;61891;55.818;37.084;2022-09-21T05:26:22;16.15;;;8.40;;
72801;SDS011;61891;55.818;37.084;2022-09-21T05:28:48;15.45;;;7.78;;
72801;SDS011;61891;55.818;37.084;2022-09-21T05:33:49;14.35;;;8.35;;
72801;SDS011;61891;55.818;37.084;2022-09-21T05:36:31;15.50;;;8.02;;
72801;SDS011;61891;55.818;37.084;2022-09-21T05:39:08;18.50;;;7.70;;
72801;SDS011;61891;55.818;37.084;2022-09-21T05:41:34;13.25;;;8.30;;
72801;SDS011;61891;55.818;37.084;2022-09-21T05:44:00;15.57;;;8.00;;
72801;SDS011;61891;55.818;37.084;2022-09-21T05:46:39;14.93;;;7.55;;
72801;SDS011;61891;55.818;37.084;2022-09-21T05:54:33;21.77;;;9.85;;
72801;SDS011;61891;55.818;37.084;2022-09-21T05:57:14;19.63;;;8.40;;
72801;SDS011;61891;55.818;37.084;2022-09-21T06:05:10;13.60;;;8.80;;
72801;SDS011;61891;55.818;37.084;2022-09-21T06:07:37;14.75;;;10.10;;
72801;SDS011;61891;55.818;37.084;2022-09-21T06:10:09;12.60;;;8.40;;
72801;SDS011;61891;55.818;37.084;2022-09-21T06:12:37;13.05;;;8.05;;
72801;SDS011;61891;55.818;37.084;2022-09-21T06:15:03;12.60;;;8.63;;
72801;SDS011;61891;55.818;37.084;2022-09-21T06:17:31;13.65;;;8.68;;
72801;SDS011;61891;55.818;37.084;2022-09-21T06:19:57;15.90;;;7.72;;
72801;SDS011;61891;55.818;37.084;2022-09-21T06:22:23;12.07;;;8.40;;
72801;SDS011;61891;55.818;37.084;2022-09-21T06:24:48;13.98;;;8.02;;
72801;SDS011;61891;55.818;37.084;2022-09-21T06:27:14;11.77;;;8.23;;
72801;SDS011;61891;55.818;37.084;2022-09-21T06:29:40;11.35;;;8.25;;
72801;SDS011;61891;55.818;37.084;2022-09-21T06:32:05;12.32;;;8.30;;
72801;SDS011;61891;55.818;37.084;2022-09-21T06:34:31;12.32;;;8.23;;
72801;SDS011;61891;55.818;37.084;2022-09-21T06:36:57;12.43;;;7.68;;
72801;SDS011;61891;55.818;37.084;2022-09-21T06:39:22;12.98;;;7.90;;
72801;SDS011;61891;55.818;37.084;2022-09-21T06:41:48;10.68;;;6.85;;
72801;SDS011;61891;55.818;37.084;2022-09-21T06:44:14;12.80;;;6.95;;
72801;SDS011;61891;55.818;37.084;2022-09-21T06:46:40;14.73;;;6.43;;
72801;SDS011;61891;55.818;37.084;2022-09-21T06:49:06;11.68;;;6.53;;
72801;SDS011;61891;55.818;37.084;2022-09-21T06:51:31;13.70;;;6.47;;
72801;SDS011;61891;55.818;37.084;2022-09-21T06:53:57;10.75;;;6.78;;
72801;SDS011;61891;55.818;37.084;2022-09-21T06:56:24;10.45;;;7.03;;
72801;SDS011;61891;55.818;37.084;2022-09-21T06:58:50;10.00;;;5.95;;
72801;SDS011;61891;55.818;37.084;2022-09-21T07:01:17;8.38;;;6.47;;
72801;SDS011;61891;55.818;37.084;2022-09-21T07:03:43;9.73;;;6.82;;
72801;SDS011;61891;55.818;37.084;2022-09-21T07:06:12;8.25;;;5.35;;
72801;SDS011;61891;55.818;37.084;2022-09-21T07:08:40;11.70;;;5.95;;
72801;SDS011;61891;55.818;37.084;2022-09-21T07:11:06;8.05;;;5.15;;
72801;SDS011;61891;55.818;37.084;2022-09-21T07:13:33;11.80;;;4.97;;
72801;SDS011;61891;55.818;37.084;2022-09-21T07:16:03;9.23;;;5.75;;
72801;SDS011;61891;55.818;37.084;2022-09-21T07:18:32;7.88;;;5.50;;
72801;SDS011;61891;55.818;37.084;2022-09-21T07:21:01;8.10;;;6.32;;
72801;SDS011;61891;55.818;37.084;2022-09-21T07:23:31;12.02;;;6.65;;
72801;SDS011;61891;55.818;37.084;2022-09-21T07:25:59;11.57;;;5.47;;
72801;SDS011;61891;55.818;37.084;2022-09-21T07:28:26;11.82;;;6.38;;
72801;SDS011;61891;55.818;37.084;2022-09-21T07:30:52;11.48;;;5.75;;
72801;SDS011;61891;55.818;37.084;2022-09-21T07:33:18;11.88;;;6.00;;
72801;SDS011;61891;55.818;37.084;2022-09-21T07:35:50;12.07;;;6.88;;
72801;SDS011;61891;55.818;37.084;2022-09-21T07:38:17;10.95;;;6.20;;
72801;SDS011;61891;55.818;37.084;2022-09-21T07:40:43;12.30;;;6.10;;
72801;SDS011;61891;55.818;37.084;2022-09-21T07:43:08;10.05;;;6.40;;
72801;SDS011;61891;55.818;37.084;2022-09-21T07:45:34;9.27;;;5.63;;
72801;SDS011;61891;55.818;37.084;2022-09-21T07:48:03;10.00;;;5.80;;
72801;SDS011;61891;55.818;37.084;2022-09-21T07:50:30;10.05;;;6.18;;
72801;SDS011;61891;55.818;37.084;2022-09-21T07:52:58;9.60;;;6.85;;
72801;SDS011;61891;55.818;37.084;2022-09-21T07:55:25;11.75;;;7.47;;
72801;SDS011;61891;55.818;37.084;2022-09-21T08:00:35;9.30;;;6.57;;
72801;SDS011;61891;55.818;37.084;2022-09-21T08:03:03;10.73;;;6.15;;
72801;SDS011;61891;55.818;37.084;2022-09-21T08:05:30;11.55;;;6.22;;
72801;SDS011;61891;55.818;37.084;2022-09-21T08:07:56;10.18;;;6.15;;
72801;SDS011;61891;55.818;37.084;2022-09-21T08:10:22;11.73;;;8.00;;
72801;SDS011;61891;55.818;37.084;2022-09-21T08:12:50;10.73;;;7.90;;
72801;SDS011;61891;55.818;37.084;2022-09-21T08:15:16;12.90;;;6.75;;
72801;SDS011;61891;55.818;37.084;2022-09-21T08:17:42;8.77;;;6.07;;
72801;SDS011;61891;55.818;37.084;2022-09-21T08:20:08;10.18;;;6.38;;
72801;SDS011;61891;55.818;37.084;2022-09-21T08:22:34;11.98;;;6.97;;
72801;SDS011;61891;55.818;37.084;2022-09-21T08:25:00;10.70;;;6.60;;
72801;SDS011;61891;55.818;37.084;2022-09-21T08:27:25;9.40;;;6.45;;
72801;SDS011;61891;55.818;37.084;2022-09-21T08:29:52;10.15;;;6.35;;
72801;SDS011;61891;55.818;37.084;2022-09-21T08:32:18;11.10;;;6.80;;
72801;SDS011;61891;55.818;37.084;2022-09-21T08:34:43;16.70;;;7.03;;
72801;SDS011;61891;55.818;37.084;2022-09-21T08:37:09;10.43;;;7.15;;
72801;SDS011;61891;55.818;37.084;2022-09-21T08:39:35;12.82;;;7.82;;
72801;SDS011;61891;55.818;37.084;2022-09-21T08:44:44;11.07;;;6.40;;
72801;SDS011;61891;55.818;37.084;2022-09-21T08:49:51;15.38;;;6.70;;
72801;SDS011;61891;55.818;37.084;2022-09-21T08:52:21;11.20;;;6.68;;
72801;SDS011;61891;55.818;37.084;2022-09-21T08:55:02;10.52;;;6.00;;
72801;SDS011;61891;55.818;37.084;2022-09-21T08:57:34;11.85;;;6.03;;
72801;SDS011;61891;55.818;37.084;2022-09-21T09:00:00;8.05;;;4.93;;
72801;SDS011;61891;55.818;37.084;2022-09-21T09:05:32;8.57;;;4.93;;
72801;SDS011;61891;55.818;37.084;2022-09-21T09:14:29;6.85;;;4.50;;
72801;SDS011;61891;55.818;37.084;2022-09-21T09:19:37;9.57;;;5.03;;
72801;SDS011;61891;55.818;37.084;2022-09-21T09:22:14;7.90;;;5.03;;
72801;SDS011;61891;55.818;37.084;2022-09-21T09:35:11;6.82;;;3.63;;
72801;SDS011;61891;55.818;37.084;2022-09-21T09:37:42;7.28;;;3.97;;
72801;SDS011;61891;55.818;37.084;2022-09-21T09:40:11;6.00;;;4.22;;
72801;SDS011;61891;55.818;37.084;2022-09-21T09:42:41;5.20;;;3.65;;
72801;SDS011;61891;55.818;37.084;2022-09-21T09:50:48;5.25;;;3.20;;
72801;SDS011;61891;55.818;37.084;2022-09-21T09:53:17;4.97;;;3.17;;
72801;SDS011;61891;55.818;37.084;2022-09-21T09:55:53;4.47;;;3.38;;
72801;SDS011;61891;55.818;37.084;2022-09-21T10:04:08;5.15;;;3.70;;
72801;SDS011;61891;55.818;37.084;2022-09-21T10:06:36;6.75;;;4.10;;
72801;SDS011;61891;55.818;37.084;2022-09-21T10:09:45;7.72;;;4.50;;
72801;SDS011;61891;55.818;37.084;2022-09-21T10:12:17;8.63;;;4.90;;
72801;SDS011;61891;55.818;37.084;2022-09-21T10:14:51;6.43;;;4.60;;
72801;SDS011;61891;55.818;37.084;2022-09-21T10:17:19;7.30;;;4.75;;
72801;SDS011;61891;55.818;37.084;2022-09-21T10:19:45;7.13;;;4.82;;
72801;SDS011;61891;55.818;37.084;2022-09-21T10:22:17;8.77;;;4.50;;
72801;SDS011;61891;55.818;37.084;2022-09-21T10:24:53;7.55;;;4.75;;
72801;SDS011;61891;55.818;37.084;2022-09-21T10:27:22;8.02;;;4.25;;
72801;SDS011;61891;55.818;37.084;2022-09-21T10:29:49;10.10;;;4.43;;
72801;SDS011;61891;55.818;37.084;2022-09-21T10:37:32;8.93;;;4.43;;
72801;SDS011;61891;55.818;37.084;2022-09-21T10:40:21;6.72;;;3.97;;
72801;SDS011;61891;55.818;37.084;2022-09-21T10:42:49;5.72;;;3.85;;
72801;SDS011;61891;55.818;37.084;2022-09-21T10:45:20;4.50;;;3.50;;
72801;SDS011;61891;55.818;37.084;2022-09-21T10:48:07;6.10;;;3.08;;
72801;SDS011;61891;55.818;37.084;2022-09-21T10:50:43;4.78;;;3.15;;
72801;SDS011;61891;55.818;37.084;2022-09-21T10:58:32;6.35;;;3.75;;
72801;SDS011;61891;55.818;37.084;2022-09-21T11:01:12;5.65;;;4.22;;
72801;SDS011;61891;55.818;37.084;2022-09-21T11:06:30;4.32;;;3.17;;
72801;SDS011;61891;55.818;37.084;2022-09-21T11:09:12;6.18;;;4.00;;
72801;SDS011;61891;55.818;37.084;2022-09-21T11:25:59;5.65;;;3.20;;
72801;SDS011;61891;55.818;37.084;2022-09-21T11:28:34;6.78;;;3.28;;
72801;SDS011;61891;55.818;37.084;2022-09-21T11:53:19;4.28;;;2.60;;
72801;SDS011;61891;55.818;37.084;2022-09-21T12:01:15;3.67;;;2.20;;
72801;SDS011;61891;55.818;37.084;2022-09-21T12:09:25;3.25;;;1.92;;
72801;SDS011;61891;55.818;37.084;2022-09-21T12:14:48;2.88;;;1.80;;
72801;SDS011;61891;55.818;37.084;2022-09-21T12:17:44;2.78;;;1.60;;
72801;SDS011;61891;55.818;37.084;2022-09-21T12:23:06;1.80;;;1.45;;
72801;SDS011;61891;55.818;37.084;2022-09-21T12:25:40;3.13;;;1.63;;
72801;SDS011;61891;55.818;37.084;2022-09-21T12:28:13;3.17;;;1.70;;
72801;SDS011;61891;55.818;37.084;2022-09-21T12:30:43;3.03;;;1.63;;
72801;SDS011;61891;55.818;37.084;2022-09-21T12:35:49;2.33;;;1.70;;
72801;SDS011;61891;55.818;37.084;2022-09-21T12:38:32;4.53;;;1.85;;
72801;SDS011;61891;55.818;37.084;2022-09-21T12:46:27;4.55;;;1.67;;
72801;SDS011;61891;55.818;37.084;2022-09-21T12:48:56;4.28;;;1.80;;
72801;SDS011;61891;55.818;37.084;2022-09-21T12:51:34;3.17;;;1.55;;
72801;SDS011;61891;55.818;37.084;2022-09-21T13:00:21;2.75;;;1.55;;
72801;SDS011;61891;55.818;37.084;2022-09-21T13:03:02;2.13;;;1.50;;
72801;SDS011;61891;55.818;37.084;2022-09-21T13:08:16;2.55;;;1.50;;
72801;SDS011;61891;55.818;37.084;2022-09-21T13:11:01;2.60;;;1.60;;
72801;SDS011;61891;55.818;37.084;2022-09-21T13:13:42;2.28;;;1.42;;
72801;SDS011;61891;55.818;37.084;2022-09-21T13:18:55;4.75;;;2.05;;
72801;SDS011;61891;55.818;37.084;2022-09-21T13:21:28;2.83;;;1.40;;
72801;SDS011;61891;55.818;37.084;2022-09-21T13:23:57;7.35;;;1.48;;
72801;SDS011;61891;55.818;37.084;2022-09-21T13:26:33;3.03;;;1.52;;
72801;SDS011;61891;55.818;37.084;2022-09-21T13:31:56;2.70;;;1.20;;
72801;SDS011;61891;55.818;37.084;2022-09-21T13:34:25;1.90;;;1.40;;
72801;SDS011;61891;55.818;37.084;2022-09-21T13:39:43;2.13;;;1.40;;
72801;SDS011;61891;55.818;37.084;2022-09-21T13:44:57;4.82;;;1.90;;
72801;SDS011;61891;55.818;37.084;2022-09-21T13:47:35;3.95;;;2.10;;
72801;SDS011;61891;55.818;37.084;2022-09-21T13:50:25;5.55;;;2.40;;
72801;SDS011;61891;55.818;37.084;2022-09-21T13:53:02;6.47;;;2.05;;
72801;SDS011;61891;55.818;37.084;2022-09-21T13:55:33;5.55;;;1.95;;
72801;SDS011;61891;55.818;37.084;2022-09-21T14:00:57;5.28;;;2.72;;
72801;SDS011;61891;55.818;37.084;2022-09-21T14:03:33;5.28;;;2.28;;
72801;SDS011;61891;55.818;37.084;2022-09-21T14:06:11;8.20;;;3.38;;
72801;SDS011;61891;55.818;37.084;2022-09-21T14:08:51;6.32;;;2.92;;
72801;SDS011;61891;55.818;37.084;2022-09-21T14:11:35;5.97;;;2.58;;
72801;SDS011;61891;55.818;37.084;2022-09-21T14:14:05;6.13;;;3.05;;
72801;SDS011;61891;55.818;37.084;2022-09-21T14:24:33;6.30;;;3.20;;
72801;SDS011;61891;55.818;37.084;2022-09-21T14:29:57;5.53;;;3.00;;
72801;SDS011;61891;55.818;37.084;2022-09-21T14:32:29;8.02;;;3.40;;
72801;SDS011;61891;55.818;37.084;2022-09-21T14:35:08;7.57;;;3.33;;
72801;SDS011;61891;55.818;37.084;2022-09-21T14:37:40;3.95;;;2.63;;
72801;SDS011;61891;55.818;37.084;2022-09-21T14:40:44;6.07;;;3.28;;
72801;SDS011;61891;55.818;37.084;2022-09-21T14:43:07;5.35;;;3.63;;
72801;SDS011;61891;55.818;37.084;2022-09-21T14:50:53;4.95;;;2.92;;
72801;SDS011;61891;55.818;37.084;2022-09-21T15:06:43;3.72;;;2.33;;
72801;SDS011;61891;55.818;37.084;2022-09-21T15:09:52;6.80;;;3.05;;
72801;SDS011;61891;55.818;37.084;2022-09-21T15:12:59;5.32;;;2.60;;
72801;SDS011;61891;55.818;37.084;2022-09-21T15:15:36;4.05;;;2.65;;
72801;SDS011;61891;55.818;37.084;2022-09-21T15:18:16;6.13;;;2.75;;
72801;SDS011;61891;55.818;37.084;2022-09-21T15:23:53;5.70;;;2.85;;
72801;SDS011;61891;55.818;37.084;2022-09-21T15:26:29;6.78;;;2.90;;
72801;SDS011;61891;55.818;37.084;2022-09-21T15:28:59;4.82;;;2.40;;
72801;SDS011;61891;55.818;37.084;2022-09-21T15:31:34;3.58;;;2.20;;
72801;SDS011;61891;55.818;37.084;2022-09-21T15:34:03;3.85;;;2.13;;
72801;SDS011;61891;55.818;37.084;2022-09-21T15:36:30;3.47;;;2.10;;
72801;SDS011;61891;55.818;37.084;2022-09-21T15:38:58;3.70;;;2.15;;
72801;SDS011;61891;55.818;37.084;2022-09-21T15:44:06;5.47;;;2.88;;
72801;SDS011;61891;55.818;37.084;2022-09-21T15:46:41;3.42;;;2.67;;
72801;SDS011;61891;55.818;37.084;2022-09-21T15:49:14;5.43;;;2.50;;
72801;SDS011;61891;55.818;37.084;2022-09-21T15:51:44;5.18;;;2.40;;
72801;SDS011;61891;55.818;37.084;2022-09-21T15:56:45;3.55;;;2.70;;
72801;SDS011;61891;55.818;37.084;2022-09-21T15:59:13;4.32;;;2.50;;
72801;SDS011;61891;55.818;37.084;2022-09-21T16:01:46;2.50;;;1.92;;
72801;SDS011;61891;55.818;37.084;2022-09-21T16:04:16;4.68;;;1.90;;
72801;SDS011;61891;55.818;37.084;2022-09-21T16:06:45;3.55;;;1.92;;
72801;SDS011;61891;55.818;37.084;2022-09-21T16:11:48;6.72;;;2.20;;
72801;SDS011;61891;55.818;37.084;2022-09-21T16:14:15;2.78;;;2.22;;
72801;SDS011;61891;55.818;37.084;2022-09-21T16:17:22;4.75;;;1.73;;
72801;SDS011;61891;55.818;37.084;2022-09-21T16:22:20;2.33;;;1.48;;
72801;SDS011;61891;55.818;37.084;2022-09-21T16:24:54;1.98;;;1.20;;
72801;SDS011;61891;55.818;37.084;2022-09-21T16:27:22;2.05;;;1.30;;
72801;SDS011;61891;55.818;37.084;2022-09-21T16:29:53;2.78;;;1.42;;
72801;SDS011;61891;55.818;37.084;2022-09-21T16:32:27;2.80;;;1.95;;
72801;SDS011;61891;55.818;37.084;2022-09-21T16:37:58;2.22;;;1.20;;
72801;SDS011;61891;55.818;37.084;2022-09-21T16:40:25;3.47;;;1.35;;
72801;SDS011;61891;55.818;37.084;2022-09-21T16:42:51;2.95;;;1.90;;
72801;SDS011;61891;55.818;37.084;2022-09-21T16:45:27;1.92;;;1.48;;
72801;SDS011;61891;55.818;37.084;2022-09-21T16:47:58;2.67;;;1.95;;
72801;SDS011;61891;55.818;37.084;2022-09-21T16:50:25;4.10;;;1.23;;
72801;SDS011;61891;55.818;37.084;2022-09-21T16:52:51;2.80;;;1.77;;
72801;SDS011;61891;55.818;37.084;2022-09-21T16:55:19;2.80;;;1.73;;
72801;SDS011;61891;55.818;37.084;2022-09-21T16:57:46;3.08;;;1.88;;
72801;SDS011;61891;55.818;37.084;2022-09-21T17:00:13;2.55;;;2.17;;
72801;SDS011;61891;55.818;37.084;2022-09-21T17:02:45;3.38;;;2.10;;
72801;SDS011;61891;55.818;37.084;2022-09-21T17:05:12;4.32;;;2.15;;
72801;SDS011;61891;55.818;37.084;2022-09-21T17:07:52;3.88;;;2.90;;
72801;SDS011;61891;55.818;37.084;2022-09-21T17:10:19;4.63;;;2.10;;
72801;SDS011;61891;55.818;37.084;2022-09-21T17:12:51;4.50;;;2.38;;
72801;SDS011;61891;55.818;37.084;2022-09-21T17:15:18;3.70;;;2.53;;
72801;SDS011;61891;55.818;37.084;2022-09-21T17:17:44;4.18;;;2.45;;
72801;SDS011;61891;55.818;37.084;2022-09-21T17:20:15;3.10;;;2.70;;
72801;SDS011;61891;55.818;37.084;2022-09-21T17:22:44;4.55;;;3.05;;
72801;SDS011;61891;55.818;37.084;2022-09-21T17:25:10;5.18;;;3.08;;
72801;SDS011;61891;55.818;37.084;2022-09-21T17:27:36;4.50;;;2.97;;
72801;SDS011;61891;55.818;37.084;2022-09-21T17:30:08;4.43;;;2.60;;
72801;SDS011;61891;55.818;37.084;2022-09-21T17:32:37;5.03;;;2.45;;
72801;SDS011;61891;55.818;37.084;2022-09-21T17:35:18;4.53;;;3.50;;
72801;SDS011;61891;55.818;37.084;2022-09-21T17:37:53;3.90;;;3.00;;
72801;SDS011;61891;55.818;37.084;2022-09-21T17:40:19;4.78;;;3.08;;
72801;SDS011;61891;55.818;37.084;2022-09-21T17:42:47;6.07;;;3.60;;
72801;SDS011;61891;55.818;37.084;2022-09-21T17:45:27;4.35;;;3.47;;
72801;SDS011;61891;55.818;37.084;2022-09-21T17:48:03;5.07;;;3.58;;
72801;SDS011;61891;55.818;37.084;2022-09-21T17:50:30;6.30;;;2.97;;
72801;SDS011;61891;55.818;37.084;2022-09-21T17:52:56;5.63;;;3.53;;
72801;SDS011;61891;55.818;37.084;2022-09-21T17:55:48;5.72;;;4.20;;
72801;SDS011;61891;55.818;37.084;2022-09-21T18:03:51;3.67;;;2.75;;
72801;SDS011;61891;55.818;37.084;2022-09-21T18:06:17;3.55;;;2.60;;
72801;SDS011;61891;55.818;37.084;2022-09-21T18:08:43;3.45;;;2.63;;
72801;SDS011;61891;55.818;37.084;2022-09-21T18:17:03;4.40;;;1.77;;
72801;SDS011;61891;55.818;37.084;2022-09-21T18:22:24;3.03;;;1.98;;
72801;SDS011;61891;55.818;37.084;2022-09-21T18:25:05;2.33;;;2.10;;
72801;SDS011;61891;55.818;37.084;2022-09-21T18:30:08;4.70;;;2.97;;
72801;SDS011;61891;55.818;37.084;2022-09-21T18:32:42;2.92;;;2.40;;
72801;SDS011;61891;55.818;37.084;2022-09-21T18:35:24;7.00;;;2.95;;
72801;SDS011;61891;55.818;37.084;2022-09-21T18:40:47;2.58;;;2.00;;
72801;SDS011;61891;55.818;37.084;2022-09-21T18:43:43;3.53;;;2.40;;
72801;SDS011;61891;55.818;37.084;2022-09-21T18:46:43;3.85;;;3.13;;
72801;SDS011;61891;55.818;37.084;2022-09-21T18:52:43;5.32;;;2.83;;
72801;SDS011;61891;55.818;37.084;2022-09-21T18:55:24;4.97;;;3.35;;
72801;SDS011;61891;55.818;37.084;2022-09-21T18:57:52;8.02;;;3.70;;
72801;SDS011;61891;55.818;37.084;2022-09-21T19:00:19;7.35;;;3.88;;
72801;SDS011;61891;55.818;37.084;2022-09-21T19:05:11;5.07;;;3.50;;
72801;SDS011;61891;55.818;37.084;2022-09-21T19:07:49;5.80;;;3.22;;
72801;SDS011;61891;55.818;37.084;2022-09-21T19:10:38;5.03;;;3.10;;
72801;SDS011;61891;55.818;37.084;2022-09-21T19:15:53;5.93;;;3.92;;
72801;SDS011;61891;55.818;37.084;2022-09-21T19:24:24;4.53;;;3.17;;
72801;SDS011;61891;55.818;37.084;2022-09-21T19:32:32;5.57;;;3.97;;